This is the latest recevied weather packets stored in our database for station/object SV9TNF-51. If no packets are shown the sender has not sent any weather packets the latest 10 day(s).
| Time | Temp. | Humidity | Pressure | Rain* | Wind** | Luminosity | Snow |
|---|---|---|---|---|---|---|---|
| 1788223683 | 25.56° C | 43% | 1011.2 hPa | 0 mm | 1.79 m/s, 115° | - | - |
| 1788223382 | 26.11° C | 43% | 1011.2 hPa | 0 mm | 0 m/s | - | - |
| 1788223083 | 26.67° C | 41% | 1011.2 hPa | 0 mm | 0.89 m/s, 124° | - | - |
| 1788222783 | 26.11° C | 42% | 1011.2 hPa | 0 mm | 0 m/s | - | - |
| 1788222482 | 26.11° C | 42% | 1011.2 hPa | 0 mm | 0.89 m/s, 124° | - | - |
| 1788222182 | 26.11° C | 42% | 1011.2 hPa | 0 mm | 0 m/s | - | - |
| 1788221882 | 25.56° C | 44% | 1011.2 hPa | 0 mm | 0 m/s | - | - |
| 1788221582 | 25.56° C | 45% | 1011.2 hPa | 0 mm | 0 m/s | - | - |
| 1788221282 | 25.56° C | 44% | 1011.2 hPa | 0 mm | 1.79 m/s, 118° | - | - |
| 1788220981 | 25.56° C | 44% | 1011.2 hPa | 0 mm | 1.79 m/s, 124° | - | - |
| 1788220681 | 25.56° C | 44% | 1011.2 hPa | 0 mm | 1.79 m/s, 128° | - | - |
| 1788220382 | 25.56° C | 43% | 1011.2 hPa | 0 mm | 1.34 m/s, 133° | - | - |
| 1788220081 | 25.56° C | 43% | 1011.5 hPa | 0 mm | 1.34 m/s, 97° | - | - |
| 1788219781 | 25.56° C | 43% | 1011.5 hPa | 0 mm | 1.79 m/s, 142° | - | - |
| 1788219481 | 25.56° C | 43% | 1011.5 hPa | 0 mm | 1.79 m/s, 134° | - | - |
| 1788219181 | 25.56° C | 47% | 1011.5 hPa | 0 mm | 3.58 m/s, 266° | - | - |
| 1788218881 | 25.56° C | 47% | 1011.5 hPa | 0 mm | 0 m/s | - | - |
| 1788218581 | 26.11° C | 47% | 1011.5 hPa | 0 mm | 3.13 m/s, 108° | - | - |
| 1788218281 | 25.56° C | 48% | 1011.5 hPa | 0 mm | 2.24 m/s, 111° | - | - |
| 1788217981 | 25.56° C | 50% | 1011.5 hPa | 0 mm | 3.13 m/s, 81° | - | - |
| 1788217680 | 25° C | 51% | 1011.5 hPa | 0 mm | 2.68 m/s, 335° | - | - |
| 1788217380 | 25° C | 52% | 1011.5 hPa | 0 mm | 1.34 m/s, 146° | - | - |
| 1788217080 | 25.56° C | 53% | 1011.5 hPa | 0 mm | 0 m/s | - | - |
| 1788216780 | 25.56° C | 53% | 1011.5 hPa | 0 mm | 0 m/s | - | - |
| 1788216480 | 25.56° C | 53% | 1011.5 hPa | 0 mm | 1.34 m/s, 123° | - | - |
* Rain latest hour (hover to see other rain measurements)
** Current wind speed in m/s (hover to see current wind gust speed)